sensor_id;sensor_type;location;lat;lon;timestamp;P1;durP1;ratioP1;P2;durP2;ratioP2
16890;SDS011;8562;52.246;20.966;2023-05-23T00:00:45;4.53;;;3.20;;
16890;SDS011;8562;52.246;20.966;2023-05-23T00:03:12;3.97;;;2.70;;
16890;SDS011;8562;52.246;20.966;2023-05-23T00:05:37;5.20;;;2.70;;
16890;SDS011;8562;52.246;20.966;2023-05-23T00:08:02;3.87;;;2.80;;
16890;SDS011;8562;52.246;20.966;2023-05-23T00:10:28;3.63;;;2.77;;
16890;SDS011;8562;52.246;20.966;2023-05-23T00:12:53;4.67;;;2.77;;
16890;SDS011;8562;52.246;20.966;2023-05-23T00:15:19;3.90;;;3.20;;
16890;SDS011;8562;52.246;20.966;2023-05-23T00:17:45;3.70;;;3.10;;
16890;SDS011;8562;52.246;20.966;2023-05-23T00:20:11;5.87;;;3.10;;
16890;SDS011;8562;52.246;20.966;2023-05-23T00:22:36;6.53;;;3.03;;
16890;SDS011;8562;52.246;20.966;2023-05-23T00:25:09;5.60;;;3.13;;
16890;SDS011;8562;52.246;20.966;2023-05-23T00:27:35;5.97;;;3.60;;
16890;SDS011;8562;52.246;20.966;2023-05-23T00:30:01;6.10;;;3.33;;
16890;SDS011;8562;52.246;20.966;2023-05-23T00:32:27;3.90;;;3.20;;
16890;SDS011;8562;52.246;20.966;2023-05-23T00:34:52;3.27;;;2.30;;
16890;SDS011;8562;52.246;20.966;2023-05-23T00:37:18;5.40;;;2.90;;
16890;SDS011;8562;52.246;20.966;2023-05-23T00:39:44;2.97;;;2.23;;
16890;SDS011;8562;52.246;20.966;2023-05-23T00:42:10;2.90;;;2.60;;
16890;SDS011;8562;52.246;20.966;2023-05-23T00:44:35;7.63;;;3.20;;
16890;SDS011;8562;52.246;20.966;2023-05-23T00:47:01;4.73;;;2.70;;
16890;SDS011;8562;52.246;20.966;2023-05-23T00:49:27;3.33;;;2.63;;
16890;SDS011;8562;52.246;20.966;2023-05-23T00:51:53;5.50;;;3.43;;
16890;SDS011;8562;52.246;20.966;2023-05-23T00:54:28;3.10;;;2.80;;
16890;SDS011;8562;52.246;20.966;2023-05-23T00:56:55;4.97;;;3.03;;
16890;SDS011;8562;52.246;20.966;2023-05-23T00:59:21;4.47;;;3.20;;
16890;SDS011;8562;52.246;20.966;2023-05-23T01:01:49;3.00;;;2.70;;
16890;SDS011;8562;52.246;20.966;2023-05-23T01:04:16;5.30;;;2.93;;
16890;SDS011;8562;52.246;20.966;2023-05-23T01:06:41;5.93;;;3.03;;
16890;SDS011;8562;52.246;20.966;2023-05-23T01:09:11;3.13;;;2.83;;
16890;SDS011;8562;52.246;20.966;2023-05-23T01:11:42;4.10;;;3.13;;
16890;SDS011;8562;52.246;20.966;2023-05-23T01:14:11;5.30;;;2.90;;
16890;SDS011;8562;52.246;20.966;2023-05-23T01:16:44;3.53;;;2.73;;
16890;SDS011;8562;52.246;20.966;2023-05-23T01:21:44;3.50;;;2.77;;
16890;SDS011;8562;52.246;20.966;2023-05-23T01:24:21;4.40;;;3.40;;
16890;SDS011;8562;52.246;20.966;2023-05-23T01:26:56;4.70;;;3.17;;
16890;SDS011;8562;52.246;20.966;2023-05-23T01:29:28;4.17;;;2.30;;
16890;SDS011;8562;52.246;20.966;2023-05-23T01:31:56;2.93;;;2.63;;
16890;SDS011;8562;52.246;20.966;2023-05-23T01:34:22;3.53;;;3.10;;
16890;SDS011;8562;52.246;20.966;2023-05-23T01:36:53;4.33;;;2.93;;
16890;SDS011;8562;52.246;20.966;2023-05-23T01:39:22;3.60;;;2.67;;
16890;SDS011;8562;52.246;20.966;2023-05-23T01:41:48;3.03;;;2.70;;
16890;SDS011;8562;52.246;20.966;2023-05-23T01:44:14;3.03;;;2.73;;
16890;SDS011;8562;52.246;20.966;2023-05-23T01:46:39;9.10;;;2.80;;
16890;SDS011;8562;52.246;20.966;2023-05-23T01:49:06;4.13;;;3.00;;
16890;SDS011;8562;52.246;20.966;2023-05-23T01:51:32;4.03;;;2.97;;
16890;SDS011;8562;52.246;20.966;2023-05-23T01:53:58;4.07;;;2.73;;
16890;SDS011;8562;52.246;20.966;2023-05-23T01:56:25;4.00;;;3.37;;
16890;SDS011;8562;52.246;20.966;2023-05-23T01:58:51;3.33;;;2.47;;
16890;SDS011;8562;52.246;20.966;2023-05-23T02:01:17;4.10;;;3.37;;
16890;SDS011;8562;52.246;20.966;2023-05-23T02:03:42;4.13;;;2.77;;
16890;SDS011;8562;52.246;20.966;2023-05-23T02:06:08;5.87;;;3.40;;
16890;SDS011;8562;52.246;20.966;2023-05-23T02:08:34;2.77;;;2.57;;
16890;SDS011;8562;52.246;20.966;2023-05-23T02:11:00;3.57;;;2.60;;
16890;SDS011;8562;52.246;20.966;2023-05-23T02:13:27;5.87;;;3.13;;
16890;SDS011;8562;52.246;20.966;2023-05-23T02:15:52;4.30;;;2.80;;
16890;SDS011;8562;52.246;20.966;2023-05-23T02:18:17;4.93;;;3.50;;
16890;SDS011;8562;52.246;20.966;2023-05-23T02:20:43;4.93;;;3.00;;
16890;SDS011;8562;52.246;20.966;2023-05-23T02:23:08;4.70;;;3.43;;
16890;SDS011;8562;52.246;20.966;2023-05-23T02:25:36;4.20;;;3.07;;
16890;SDS011;8562;52.246;20.966;2023-05-23T02:28:05;3.10;;;2.80;;
16890;SDS011;8562;52.246;20.966;2023-05-23T02:30:30;4.53;;;3.33;;
16890;SDS011;8562;52.246;20.966;2023-05-23T02:32:55;4.07;;;3.10;;
16890;SDS011;8562;52.246;20.966;2023-05-23T02:35:23;3.73;;;2.90;;
16890;SDS011;8562;52.246;20.966;2023-05-23T02:37:48;2.90;;;2.63;;
16890;SDS011;8562;52.246;20.966;2023-05-23T02:40:14;3.80;;;3.10;;
16890;SDS011;8562;52.246;20.966;2023-05-23T02:42:39;5.33;;;2.80;;
16890;SDS011;8562;52.246;20.966;2023-05-23T02:45:05;3.57;;;3.20;;
16890;SDS011;8562;52.246;20.966;2023-05-23T02:47:31;4.30;;;3.03;;
16890;SDS011;8562;52.246;20.966;2023-05-23T02:49:56;4.77;;;2.93;;
16890;SDS011;8562;52.246;20.966;2023-05-23T02:52:22;3.20;;;2.90;;
16890;SDS011;8562;52.246;20.966;2023-05-23T02:54:47;6.17;;;3.23;;
16890;SDS011;8562;52.246;20.966;2023-05-23T02:57:13;3.53;;;2.97;;
16890;SDS011;8562;52.246;20.966;2023-05-23T02:59:39;6.27;;;3.00;;
16890;SDS011;8562;52.246;20.966;2023-05-23T03:02:05;2.73;;;2.53;;
16890;SDS011;8562;52.246;20.966;2023-05-23T03:04:30;3.43;;;2.63;;
16890;SDS011;8562;52.246;20.966;2023-05-23T03:06:56;5.27;;;3.07;;
16890;SDS011;8562;52.246;20.966;2023-05-23T03:09:23;3.63;;;3.17;;
16890;SDS011;8562;52.246;20.966;2023-05-23T03:11:48;5.77;;;3.53;;
16890;SDS011;8562;52.246;20.966;2023-05-23T03:14:14;4.63;;;3.00;;
16890;SDS011;8562;52.246;20.966;2023-05-23T03:16:40;4.27;;;2.83;;
16890;SDS011;8562;52.246;20.966;2023-05-23T03:19:06;8.07;;;3.67;;
16890;SDS011;8562;52.246;20.966;2023-05-23T03:21:31;4.57;;;3.13;;
16890;SDS011;8562;52.246;20.966;2023-05-23T03:23:56;3.63;;;3.00;;
16890;SDS011;8562;52.246;20.966;2023-05-23T03:26:22;5.13;;;2.77;;
16890;SDS011;8562;52.246;20.966;2023-05-23T03:28:49;5.63;;;3.33;;
16890;SDS011;8562;52.246;20.966;2023-05-23T03:31:17;3.90;;;3.20;;
16890;SDS011;8562;52.246;20.966;2023-05-23T03:33:43;5.10;;;3.30;;
16890;SDS011;8562;52.246;20.966;2023-05-23T03:36:08;4.80;;;3.37;;
16890;SDS011;8562;52.246;20.966;2023-05-23T03:38:34;5.13;;;3.43;;
16890;SDS011;8562;52.246;20.966;2023-05-23T03:40:59;3.57;;;2.80;;
16890;SDS011;8562;52.246;20.966;2023-05-23T03:43:25;5.47;;;3.87;;
16890;SDS011;8562;52.246;20.966;2023-05-23T03:45:50;7.13;;;3.30;;
16890;SDS011;8562;52.246;20.966;2023-05-23T03:48:16;5.83;;;3.23;;
16890;SDS011;8562;52.246;20.966;2023-05-23T03:50:42;4.53;;;2.97;;
16890;SDS011;8562;52.246;20.966;2023-05-23T03:53:08;5.57;;;3.23;;
16890;SDS011;8562;52.246;20.966;2023-05-23T03:55:35;5.67;;;3.40;;
16890;SDS011;8562;52.246;20.966;2023-05-23T03:58:00;8.33;;;3.57;;
16890;SDS011;8562;52.246;20.966;2023-05-23T04:00:26;5.40;;;3.60;;
16890;SDS011;8562;52.246;20.966;2023-05-23T04:02:51;3.33;;;2.60;;
16890;SDS011;8562;52.246;20.966;2023-05-23T04:05:21;3.73;;;3.27;;
16890;SDS011;8562;52.246;20.966;2023-05-23T04:07:47;6.90;;;3.40;;
16890;SDS011;8562;52.246;20.966;2023-05-23T04:10:13;3.77;;;3.23;;
16890;SDS011;8562;52.246;20.966;2023-05-23T04:12:39;4.37;;;3.17;;
16890;SDS011;8562;52.246;20.966;2023-05-23T04:15:08;4.47;;;2.80;;
16890;SDS011;8562;52.246;20.966;2023-05-23T04:17:40;4.37;;;3.13;;
16890;SDS011;8562;52.246;20.966;2023-05-23T04:20:06;4.33;;;3.40;;
16890;SDS011;8562;52.246;20.966;2023-05-23T04:22:31;6.63;;;3.13;;
16890;SDS011;8562;52.246;20.966;2023-05-23T04:24:59;3.80;;;2.93;;
16890;SDS011;8562;52.246;20.966;2023-05-23T04:27:28;3.80;;;3.17;;
16890;SDS011;8562;52.246;20.966;2023-05-23T04:29:53;5.43;;;2.40;;
16890;SDS011;8562;52.246;20.966;2023-05-23T04:32:20;6.67;;;2.40;;
16890;SDS011;8562;52.246;20.966;2023-05-23T04:34:47;4.63;;;2.60;;
16890;SDS011;8562;52.246;20.966;2023-05-23T04:37:12;4.57;;;2.47;;
16890;SDS011;8562;52.246;20.966;2023-05-23T04:39:38;5.27;;;3.40;;
16890;SDS011;8562;52.246;20.966;2023-05-23T04:42:27;4.27;;;2.17;;
16890;SDS011;8562;52.246;20.966;2023-05-23T04:45:17;6.33;;;2.50;;
16890;SDS011;8562;52.246;20.966;2023-05-23T04:47:57;4.43;;;2.63;;
16890;SDS011;8562;52.246;20.966;2023-05-23T04:50:33;3.77;;;2.40;;
16890;SDS011;8562;52.246;20.966;2023-05-23T04:53:01;3.07;;;2.53;;
16890;SDS011;8562;52.246;20.966;2023-05-23T04:55:27;3.10;;;2.80;;
16890;SDS011;8562;52.246;20.966;2023-05-23T04:57:52;3.90;;;2.87;;
16890;SDS011;8562;52.246;20.966;2023-05-23T05:00:18;4.57;;;2.70;;
16890;SDS011;8562;52.246;20.966;2023-05-23T05:02:44;4.40;;;3.33;;
16890;SDS011;8562;52.246;20.966;2023-05-23T05:05:09;5.33;;;2.30;;
16890;SDS011;8562;52.246;20.966;2023-05-23T05:07:35;5.23;;;3.00;;
16890;SDS011;8562;52.246;20.966;2023-05-23T05:10:01;5.47;;;2.80;;
16890;SDS011;8562;52.246;20.966;2023-05-23T05:12:28;4.93;;;2.67;;
16890;SDS011;8562;52.246;20.966;2023-05-23T05:14:53;5.50;;;2.90;;
16890;SDS011;8562;52.246;20.966;2023-05-23T05:17:18;4.07;;;2.77;;
16890;SDS011;8562;52.246;20.966;2023-05-23T05:19:59;4.87;;;3.37;;
16890;SDS011;8562;52.246;20.966;2023-05-23T05:22:25;4.77;;;2.73;;
16890;SDS011;8562;52.246;20.966;2023-05-23T05:24:50;5.87;;;2.70;;
16890;SDS011;8562;52.246;20.966;2023-05-23T05:27:16;5.83;;;2.93;;
16890;SDS011;8562;52.246;20.966;2023-05-23T05:29:42;4.30;;;2.70;;
16890;SDS011;8562;52.246;20.966;2023-05-23T05:32:07;3.73;;;3.10;;
16890;SDS011;8562;52.246;20.966;2023-05-23T05:34:33;3.13;;;2.60;;
16890;SDS011;8562;52.246;20.966;2023-05-23T05:36:59;4.90;;;2.73;;
16890;SDS011;8562;52.246;20.966;2023-05-23T05:39:25;5.00;;;2.60;;
16890;SDS011;8562;52.246;20.966;2023-05-23T05:41:50;4.60;;;2.23;;
16890;SDS011;8562;52.246;20.966;2023-05-23T05:44:15;4.53;;;2.90;;
16890;SDS011;8562;52.246;20.966;2023-05-23T05:46:41;6.07;;;2.67;;
16890;SDS011;8562;52.246;20.966;2023-05-23T05:49:06;5.97;;;2.90;;
16890;SDS011;8562;52.246;20.966;2023-05-23T05:51:32;6.53;;;2.67;;
16890;SDS011;8562;52.246;20.966;2023-05-23T05:53:57;3.10;;;2.77;;
16890;SDS011;8562;52.246;20.966;2023-05-23T05:56:23;5.47;;;2.27;;
16890;SDS011;8562;52.246;20.966;2023-05-23T05:58:48;2.90;;;2.50;;
16890;SDS011;8562;52.246;20.966;2023-05-23T06:01:14;5.27;;;2.23;;
16890;SDS011;8562;52.246;20.966;2023-05-23T06:03:40;6.50;;;2.63;;
16890;SDS011;8562;52.246;20.966;2023-05-23T06:06:06;3.30;;;2.63;;
16890;SDS011;8562;52.246;20.966;2023-05-23T06:08:33;4.07;;;2.43;;
16890;SDS011;8562;52.246;20.966;2023-05-23T06:10:58;3.17;;;2.53;;
16890;SDS011;8562;52.246;20.966;2023-05-23T06:13:24;3.93;;;2.87;;
16890;SDS011;8562;52.246;20.966;2023-05-23T06:15:52;8.33;;;2.83;;
16890;SDS011;8562;52.246;20.966;2023-05-23T06:18:17;4.15;;;2.35;;
16890;SDS011;8562;52.246;20.966;2023-05-23T06:20:43;2.97;;;2.10;;
16890;SDS011;8562;52.246;20.966;2023-05-23T06:23:13;4.63;;;2.40;;
16890;SDS011;8562;52.246;20.966;2023-05-23T06:25:39;4.67;;;2.67;;
16890;SDS011;8562;52.246;20.966;2023-05-23T06:28:05;3.77;;;2.80;;
16890;SDS011;8562;52.246;20.966;2023-05-23T06:30:30;6.17;;;2.20;;
16890;SDS011;8562;52.246;20.966;2023-05-23T06:32:56;3.30;;;2.10;;
16890;SDS011;8562;52.246;20.966;2023-05-23T06:35:21;3.33;;;2.63;;
16890;SDS011;8562;52.246;20.966;2023-05-23T06:37:46;4.43;;;2.80;;
16890;SDS011;8562;52.246;20.966;2023-05-23T06:40:12;3.03;;;2.23;;
16890;SDS011;8562;52.246;20.966;2023-05-23T06:42:41;7.07;;;2.40;;
16890;SDS011;8562;52.246;20.966;2023-05-23T06:45:28;6.97;;;2.30;;
16890;SDS011;8562;52.246;20.966;2023-05-23T06:47:54;3.73;;;2.50;;
16890;SDS011;8562;52.246;20.966;2023-05-23T06:50:19;3.63;;;2.23;;
16890;SDS011;8562;52.246;20.966;2023-05-23T06:52:45;3.10;;;2.50;;
16890;SDS011;8562;52.246;20.966;2023-05-23T06:55:11;4.57;;;2.47;;
16890;SDS011;8562;52.246;20.966;2023-05-23T06:57:42;4.87;;;2.10;;
16890;SDS011;8562;52.246;20.966;2023-05-23T07:00:07;5.00;;;2.10;;
16890;SDS011;8562;52.246;20.966;2023-05-23T07:02:42;5.03;;;2.47;;
16890;SDS011;8562;52.246;20.966;2023-05-23T07:05:09;2.67;;;2.27;;
16890;SDS011;8562;52.246;20.966;2023-05-23T07:07:45;4.03;;;2.50;;
16890;SDS011;8562;52.246;20.966;2023-05-23T07:10:11;4.03;;;2.60;;
16890;SDS011;8562;52.246;20.966;2023-05-23T07:12:36;3.43;;;2.10;;
16890;SDS011;8562;52.246;20.966;2023-05-23T07:15:02;2.77;;;1.73;;
16890;SDS011;8562;52.246;20.966;2023-05-23T07:17:29;2.70;;;1.93;;
16890;SDS011;8562;52.246;20.966;2023-05-23T07:19:54;2.57;;;1.67;;
16890;SDS011;8562;52.246;20.966;2023-05-23T07:22:20;2.03;;;1.83;;
16890;SDS011;8562;52.246;20.966;2023-05-23T07:24:46;4.00;;;2.23;;
16890;SDS011;8562;52.246;20.966;2023-05-23T07:27:11;3.00;;;2.40;;
16890;SDS011;8562;52.246;20.966;2023-05-23T07:29:37;1.97;;;1.80;;
16890;SDS011;8562;52.246;20.966;2023-05-23T07:32:02;7.70;;;2.33;;
16890;SDS011;8562;52.246;20.966;2023-05-23T07:34:28;2.43;;;1.97;;
16890;SDS011;8562;52.246;20.966;2023-05-23T07:36:58;4.43;;;1.77;;
16890;SDS011;8562;52.246;20.966;2023-05-23T07:39:25;2.20;;;2.00;;
16890;SDS011;8562;52.246;20.966;2023-05-23T07:41:52;2.10;;;1.73;;
16890;SDS011;8562;52.246;20.966;2023-05-23T07:44:18;2.23;;;1.80;;
16890;SDS011;8562;52.246;20.966;2023-05-23T07:46:43;3.90;;;2.03;;
16890;SDS011;8562;52.246;20.966;2023-05-23T07:49:09;3.10;;;1.90;;
16890;SDS011;8562;52.246;20.966;2023-05-23T07:51:34;2.50;;;1.77;;
16890;SDS011;8562;52.246;20.966;2023-05-23T07:54:00;3.30;;;1.97;;
16890;SDS011;8562;52.246;20.966;2023-05-23T07:56:25;6.67;;;2.20;;
16890;SDS011;8562;52.246;20.966;2023-05-23T07:58:51;2.67;;;1.90;;
16890;SDS011;8562;52.246;20.966;2023-05-23T08:01:16;3.03;;;2.00;;
16890;SDS011;8562;52.246;20.966;2023-05-23T08:04:02;4.27;;;2.17;;
16890;SDS011;8562;52.246;20.966;2023-05-23T08:06:39;2.73;;;2.10;;
16890;SDS011;8562;52.246;20.966;2023-05-23T08:09:08;2.27;;;2.07;;
16890;SDS011;8562;52.246;20.966;2023-05-23T08:11:38;1.80;;;1.53;;
16890;SDS011;8562;52.246;20.966;2023-05-23T08:14:04;2.97;;;2.30;;
16890;SDS011;8562;52.246;20.966;2023-05-23T08:16:35;4.10;;;1.80;;
16890;SDS011;8562;52.246;20.966;2023-05-23T08:19:02;2.87;;;1.83;;
16890;SDS011;8562;52.246;20.966;2023-05-23T08:21:27;2.13;;;1.50;;
16890;SDS011;8562;52.246;20.966;2023-05-23T08:23:53;3.27;;;2.07;;
16890;SDS011;8562;52.246;20.966;2023-05-23T08:26:20;5.00;;;1.80;;
16890;SDS011;8562;52.246;20.966;2023-05-23T08:28:46;5.80;;;2.20;;
16890;SDS011;8562;52.246;20.966;2023-05-23T08:31:12;3.60;;;2.07;;
16890;SDS011;8562;52.246;20.966;2023-05-23T08:33:37;3.33;;;2.13;;
16890;SDS011;8562;52.246;20.966;2023-05-23T08:36:03;2.13;;;1.50;;
16890;SDS011;8562;52.246;20.966;2023-05-23T08:38:28;2.13;;;1.70;;
16890;SDS011;8562;52.246;20.966;2023-05-23T08:41:17;2.07;;;1.57;;
16890;SDS011;8562;52.246;20.966;2023-05-23T08:43:44;4.77;;;1.90;;
16890;SDS011;8562;52.246;20.966;2023-05-23T08:46:14;3.67;;;1.77;;
16890;SDS011;8562;52.246;20.966;2023-05-23T08:48:40;4.43;;;2.00;;
16890;SDS011;8562;52.246;20.966;2023-05-23T08:51:06;3.07;;;1.63;;
16890;SDS011;8562;52.246;20.966;2023-05-23T08:53:33;2.23;;;1.70;;
16890;SDS011;8562;52.246;20.966;2023-05-23T08:56:04;2.20;;;1.90;;
16890;SDS011;8562;52.246;20.966;2023-05-23T08:58:39;1.50;;;1.40;;
16890;SDS011;8562;52.246;20.966;2023-05-23T09:01:07;4.10;;;2.20;;
16890;SDS011;8562;52.246;20.966;2023-05-23T09:03:34;5.83;;;1.97;;
16890;SDS011;8562;52.246;20.966;2023-05-23T09:06:18;4.87;;;2.07;;
16890;SDS011;8562;52.246;20.966;2023-05-23T09:08:45;3.50;;;1.83;;
16890;SDS011;8562;52.246;20.966;2023-05-23T09:11:12;3.77;;;2.60;;
16890;SDS011;8562;52.246;20.966;2023-05-23T09:13:38;2.93;;;2.00;;
16890;SDS011;8562;52.246;20.966;2023-05-23T09:16:09;2.57;;;2.03;;
16890;SDS011;8562;52.246;20.966;2023-05-23T09:18:41;1.93;;;1.40;;
16890;SDS011;8562;52.246;20.966;2023-05-23T09:21:08;3.10;;;1.87;;
16890;SDS011;8562;52.246;20.966;2023-05-23T09:23:36;2.43;;;1.60;;
16890;SDS011;8562;52.246;20.966;2023-05-23T09:28:27;2.47;;;1.50;;
16890;SDS011;8562;52.246;20.966;2023-05-23T09:30:59;5.37;;;1.60;;
16890;SDS011;8562;52.246;20.966;2023-05-23T09:36:09;4.70;;;1.93;;
16890;SDS011;8562;52.246;20.966;2023-05-23T09:38:38;2.83;;;1.40;;
16890;SDS011;8562;52.246;20.966;2023-05-23T09:41:03;2.77;;;1.50;;
16890;SDS011;8562;52.246;20.966;2023-05-23T09:43:29;3.27;;;1.60;;
16890;SDS011;8562;52.246;20.966;2023-05-23T09:45:54;2.03;;;1.60;;
16890;SDS011;8562;52.246;20.966;2023-05-23T09:48:26;1.80;;;1.40;;
16890;SDS011;8562;52.246;20.966;2023-05-23T09:50:52;3.00;;;1.30;;
16890;SDS011;8562;52.246;20.966;2023-05-23T09:53:18;2.70;;;1.57;;
16890;SDS011;8562;52.246;20.966;2023-05-23T09:55:45;1.97;;;1.47;;
16890;SDS011;8562;52.246;20.966;2023-05-23T09:58:11;1.80;;;1.50;;
16890;SDS011;8562;52.246;20.966;2023-05-23T10:00:36;1.83;;;1.30;;
16890;SDS011;8562;52.246;20.966;2023-05-23T10:03:12;2.73;;;1.93;;
16890;SDS011;8562;52.246;20.966;2023-05-23T10:05:44;4.40;;;1.80;;
16890;SDS011;8562;52.246;20.966;2023-05-23T10:08:13;3.83;;;1.33;;
16890;SDS011;8562;52.246;20.966;2023-05-23T10:10:58;2.30;;;1.40;;
16890;SDS011;8562;52.246;20.966;2023-05-23T10:13:28;2.33;;;1.70;;
16890;SDS011;8562;52.246;20.966;2023-05-23T10:15:59;3.37;;;1.70;;
16890;SDS011;8562;52.246;20.966;2023-05-23T10:18:25;2.70;;;1.67;;
16890;SDS011;8562;52.246;20.966;2023-05-23T10:20:53;4.80;;;1.53;;
16890;SDS011;8562;52.246;20.966;2023-05-23T10:23:21;3.60;;;1.53;;
16890;SDS011;8562;52.246;20.966;2023-05-23T10:25:47;2.47;;;1.60;;
16890;SDS011;8562;52.246;20.966;2023-05-23T10:28:12;1.90;;;1.60;;
16890;SDS011;8562;52.246;20.966;2023-05-23T10:30:38;2.67;;;1.73;;
16890;SDS011;8562;52.246;20.966;2023-05-23T10:33:04;7.30;;;1.67;;
16890;SDS011;8562;52.246;20.966;2023-05-23T10:35:31;1.90;;;1.40;;
16890;SDS011;8562;52.246;20.966;2023-05-23T10:42:58;2.03;;;1.67;;
16890;SDS011;8562;52.246;20.966;2023-05-23T10:45:25;2.57;;;1.53;;
16890;SDS011;8562;52.246;20.966;2023-05-23T10:47:50;1.60;;;1.33;;
16890;SDS011;8562;52.246;20.966;2023-05-23T10:50:29;1.67;;;1.50;;
16890;SDS011;8562;52.246;20.966;2023-05-23T10:52:58;2.37;;;1.83;;
16890;SDS011;8562;52.246;20.966;2023-05-23T10:55:24;2.67;;;1.90;;
16890;SDS011;8562;52.246;20.966;2023-05-23T10:58:07;1.73;;;1.63;;
16890;SDS011;8562;52.246;20.966;2023-05-23T11:00:33;4.07;;;1.70;;
16890;SDS011;8562;52.246;20.966;2023-05-23T11:02:59;2.47;;;1.67;;
16890;SDS011;8562;52.246;20.966;2023-05-23T11:05:26;4.47;;;1.80;;
16890;SDS011;8562;52.246;20.966;2023-05-23T11:08:09;1.97;;;1.40;;
16890;SDS011;8562;52.246;20.966;2023-05-23T11:10:50;1.87;;;1.47;;
16890;SDS011;8562;52.246;20.966;2023-05-23T11:13:16;1.50;;;1.40;;
16890;SDS011;8562;52.246;20.966;2023-05-23T11:15:41;1.87;;;1.60;;
16890;SDS011;8562;52.246;20.966;2023-05-23T11:18:09;2.03;;;1.60;;
16890;SDS011;8562;52.246;20.966;2023-05-23T11:20:36;2.90;;;1.73;;
16890;SDS011;8562;52.246;20.966;2023-05-23T11:23:02;2.13;;;1.83;;
16890;SDS011;8562;52.246;20.966;2023-05-23T11:26:01;2.57;;;1.60;;
16890;SDS011;8562;52.246;20.966;2023-05-23T11:28:19;4.03;;;1.73;;
16890;SDS011;8562;52.246;20.966;2023-05-23T11:30:47;2.97;;;1.53;;
16890;SDS011;8562;52.246;20.966;2023-05-23T11:33:14;2.00;;;1.67;;
16890;SDS011;8562;52.246;20.966;2023-05-23T11:35:43;4.10;;;1.90;;
16890;SDS011;8562;52.246;20.966;2023-05-23T11:38:09;1.90;;;1.50;;
16890;SDS011;8562;52.246;20.966;2023-05-23T11:43:02;4.00;;;1.97;;
16890;SDS011;8562;52.246;20.966;2023-05-23T11:45:28;3.97;;;1.97;;
16890;SDS011;8562;52.246;20.966;2023-05-23T11:47:53;2.60;;;1.43;;
16890;SDS011;8562;52.246;20.966;2023-05-23T11:50:19;6.77;;;2.00;;
16890;SDS011;8562;52.246;20.966;2023-05-23T11:52:45;2.60;;;1.77;;
16890;SDS011;8562;52.246;20.966;2023-05-23T11:55:15;7.90;;;2.27;;
16890;SDS011;8562;52.246;20.966;2023-05-23T11:57:40;2.00;;;1.90;;
16890;SDS011;8562;52.246;20.966;2023-05-23T12:00:06;4.00;;;1.90;;
16890;SDS011;8562;52.246;20.966;2023-05-23T12:02:37;4.10;;;2.03;;
16890;SDS011;8562;52.246;20.966;2023-05-23T12:05:09;2.63;;;2.43;;
16890;SDS011;8562;52.246;20.966;2023-05-23T12:07:39;4.33;;;1.63;;
16890;SDS011;8562;52.246;20.966;2023-05-23T12:10:04;2.90;;;2.00;;
16890;SDS011;8562;52.246;20.966;2023-05-23T12:12:30;6.37;;;2.10;;
16890;SDS011;8562;52.246;20.966;2023-05-23T12:14:56;2.10;;;1.60;;
16890;SDS011;8562;52.246;20.966;2023-05-23T12:17:21;2.43;;;1.90;;
16890;SDS011;8562;52.246;20.966;2023-05-23T12:19:46;2.57;;;1.70;;
16890;SDS011;8562;52.246;20.966;2023-05-23T12:22:12;2.00;;;1.57;;
16890;SDS011;8562;52.246;20.966;2023-05-23T12:24:44;3.20;;;1.90;;
16890;SDS011;8562;52.246;20.966;2023-05-23T12:27:14;3.00;;;1.87;;
16890;SDS011;8562;52.246;20.966;2023-05-23T12:29:41;3.27;;;1.70;;
16890;SDS011;8562;52.246;20.966;2023-05-23T12:32:06;1.97;;;1.70;;
16890;SDS011;8562;52.246;20.966;2023-05-23T12:34:32;4.47;;;1.83;;
16890;SDS011;8562;52.246;20.966;2023-05-23T12:36:58;3.83;;;1.90;;
16890;SDS011;8562;52.246;20.966;2023-05-23T12:39:24;1.87;;;1.70;;
16890;SDS011;8562;52.246;20.966;2023-05-23T12:41:52;4.77;;;1.77;;
16890;SDS011;8562;52.246;20.966;2023-05-23T12:44:20;2.40;;;2.20;;
16890;SDS011;8562;52.246;20.966;2023-05-23T12:46:45;2.73;;;1.73;;
16890;SDS011;8562;52.246;20.966;2023-05-23T12:49:12;1.80;;;1.70;;
16890;SDS011;8562;52.246;20.966;2023-05-23T12:51:37;3.17;;;2.07;;
16890;SDS011;8562;52.246;20.966;2023-05-23T12:54:02;2.43;;;2.03;;
16890;SDS011;8562;52.246;20.966;2023-05-23T12:56:28;3.30;;;2.13;;
16890;SDS011;8562;52.246;20.966;2023-05-23T12:58:53;2.27;;;2.07;;
16890;SDS011;8562;52.246;20.966;2023-05-23T13:01:19;5.83;;;1.70;;
16890;SDS011;8562;52.246;20.966;2023-05-23T13:03:44;3.83;;;2.20;;
16890;SDS011;8562;52.246;20.966;2023-05-23T13:06:09;1.80;;;1.60;;
16890;SDS011;8562;52.246;20.966;2023-05-23T13:08:35;2.63;;;1.70;;
16890;SDS011;8562;52.246;20.966;2023-05-23T13:11:01;3.13;;;2.10;;
16890;SDS011;8562;52.246;20.966;2023-05-23T13:13:26;2.57;;;1.83;;
16890;SDS011;8562;52.246;20.966;2023-05-23T13:15:52;3.67;;;1.97;;
16890;SDS011;8562;52.246;20.966;2023-05-23T13:18:17;2.10;;;1.90;;
16890;SDS011;8562;52.246;20.966;2023-05-23T13:20:42;1.80;;;1.70;;
16890;SDS011;8562;52.246;20.966;2023-05-23T13:23:08;1.90;;;1.70;;
16890;SDS011;8562;52.246;20.966;2023-05-23T13:25:33;2.10;;;1.90;;
16890;SDS011;8562;52.246;20.966;2023-05-23T13:27:58;5.10;;;2.27;;
16890;SDS011;8562;52.246;20.966;2023-05-23T13:30:25;2.30;;;2.10;;
16890;SDS011;8562;52.246;20.966;2023-05-23T13:32:50;3.07;;;2.80;;
16890;SDS011;8562;52.246;20.966;2023-05-23T13:35:15;4.37;;;2.07;;
16890;SDS011;8562;52.246;20.966;2023-05-23T13:37:41;2.07;;;1.87;;
16890;SDS011;8562;52.246;20.966;2023-05-23T13:40:06;4.20;;;2.17;;
16890;SDS011;8562;52.246;20.966;2023-05-23T13:42:32;3.63;;;2.00;;
16890;SDS011;8562;52.246;20.966;2023-05-23T13:44:58;2.80;;;1.93;;
16890;SDS011;8562;52.246;20.966;2023-05-23T13:47:23;4.83;;;2.33;;
16890;SDS011;8562;52.246;20.966;2023-05-23T13:49:48;2.30;;;2.00;;
16890;SDS011;8562;52.246;20.966;2023-05-23T13:52:14;4.73;;;2.30;;
16890;SDS011;8562;52.246;20.966;2023-05-23T13:54:40;4.23;;;2.30;;
16890;SDS011;8562;52.246;20.966;2023-05-23T13:57:06;4.07;;;2.10;;
16890;SDS011;8562;52.246;20.966;2023-05-23T13:59:31;3.00;;;2.10;;
16890;SDS011;8562;52.246;20.966;2023-05-23T14:01:57;2.77;;;2.17;;
16890;SDS011;8562;52.246;20.966;2023-05-23T14:04:22;4.53;;;2.23;;
16890;SDS011;8562;52.246;20.966;2023-05-23T14:06:47;4.40;;;2.30;;
16890;SDS011;8562;52.246;20.966;2023-05-23T14:09:13;2.37;;;1.90;;
16890;SDS011;8562;52.246;20.966;2023-05-23T14:11:38;3.47;;;1.93;;
16890;SDS011;8562;52.246;20.966;2023-05-23T14:14:04;2.33;;;1.90;;
16890;SDS011;8562;52.246;20.966;2023-05-23T14:16:29;2.17;;;1.93;;
16890;SDS011;8562;52.246;20.966;2023-05-23T14:18:54;2.93;;;2.43;;
16890;SDS011;8562;52.246;20.966;2023-05-23T14:21:20;2.70;;;2.10;;
16890;SDS011;8562;52.246;20.966;2023-05-23T14:23:45;3.50;;;2.20;;
16890;SDS011;8562;52.246;20.966;2023-05-23T14:26:10;1.90;;;1.60;;
16890;SDS011;8562;52.246;20.966;2023-05-23T14:28:35;3.60;;;2.20;;
16890;SDS011;8562;52.246;20.966;2023-05-23T14:31:01;4.10;;;2.43;;
16890;SDS011;8562;52.246;20.966;2023-05-23T14:33:26;6.70;;;2.37;;
16890;SDS011;8562;52.246;20.966;2023-05-23T14:35:52;2.97;;;2.27;;
16890;SDS011;8562;52.246;20.966;2023-05-23T14:38:17;2.47;;;2.23;;
16890;SDS011;8562;52.246;20.966;2023-05-23T14:40:43;3.13;;;2.37;;
16890;SDS011;8562;52.246;20.966;2023-05-23T14:43:08;2.43;;;2.23;;
16890;SDS011;8562;52.246;20.966;2023-05-23T14:45:33;3.37;;;2.00;;
16890;SDS011;8562;52.246;20.966;2023-05-23T14:47:58;2.93;;;2.30;;
16890;SDS011;8562;52.246;20.966;2023-05-23T14:50:25;2.90;;;2.20;;
16890;SDS011;8562;52.246;20.966;2023-05-23T14:52:50;6.60;;;2.67;;
16890;SDS011;8562;52.246;20.966;2023-05-23T14:55:15;3.40;;;2.40;;
16890;SDS011;8562;52.246;20.966;2023-05-23T14:57:41;3.67;;;2.30;;
16890;SDS011;8562;52.246;20.966;2023-05-23T15:00:07;4.47;;;2.57;;
16890;SDS011;8562;52.246;20.966;2023-05-23T15:02:33;3.10;;;2.80;;